createdAt,value
2022-08-17T00:00:18.266Z,21.27
2022-08-17T00:05:39.510Z,20.45
2022-08-17T00:10:43.990Z,19.81
2022-08-17T00:15:46.376Z,21.18
2022-08-17T00:20:48.525Z,22.35
2022-08-17T00:25:51.198Z,22.88
2022-08-17T00:30:54.487Z,22.78
2022-08-17T00:35:58.161Z,19.01
2022-08-17T00:41:04.014Z,21.66
2022-08-17T00:46:19.291Z,22.30
2022-08-17T00:51:40.144Z,22.45
2022-08-17T00:56:47.828Z,22.98
2022-08-17T01:01:51.001Z,22.97
2022-08-17T01:06:53.861Z,23.17
2022-08-17T01:11:56.154Z,22.69
2022-08-17T01:17:00.401Z,22.99
2022-08-17T01:22:14.051Z,22.50
2022-08-17T01:27:18.518Z,22.82
2022-08-17T01:32:22.856Z,22.71
2022-08-17T01:37:34.778Z,22.78
2022-08-17T01:42:44.333Z,22.08
2022-08-17T01:47:46.524Z,22.85
2022-08-17T01:52:54.359Z,22.43
2022-08-17T01:57:56.541Z,22.71
2022-08-17T02:02:58.727Z,22.88
2022-08-17T02:08:01.931Z,22.86
2022-08-17T02:13:05.153Z,22.85
2022-08-17T02:18:09.335Z,22.79
2022-08-17T02:23:13.004Z,21.28
2022-08-17T02:28:15.905Z,21.58
2022-08-17T02:33:18.357Z,22.05
2022-08-17T02:38:22.482Z,22.65
2022-08-17T02:43:27.534Z,22.43
2022-08-17T02:48:31.694Z,22.52
2022-08-17T02:53:36.509Z,22.95
2022-08-17T02:58:38.690Z,22.60
2022-08-17T03:03:41.469Z,22.46
2022-08-17T03:08:43.651Z,22.35
2022-08-17T03:13:46.104Z,21.52
2022-08-17T03:18:48.673Z,22.32
2022-08-17T03:23:54.522Z,22.07
2022-08-17T03:28:57.185Z,22.49
2022-08-17T03:33:59.401Z,22.51
2022-08-17T03:39:02.090Z,22.05
2022-08-17T03:44:04.645Z,22.11
2022-08-17T03:49:26.973Z,21.84
2022-08-17T03:54:47.922Z,21.17
2022-08-17T03:59:51.110Z,21.42
2022-08-17T04:04:54.007Z,20.61
2022-08-17T04:09:58.184Z,21.11
2022-08-17T04:15:00.607Z,20.95
2022-08-17T04:20:02.934Z,21.06
2022-08-17T04:25:07.123Z,20.85
2022-08-17T04:30:09.946Z,20.24
2022-08-17T04:35:12.126Z,20.90
2022-08-17T04:40:32.981Z,20.98
2022-08-17T04:45:40.706Z,19.91
2022-08-17T04:50:59.659Z,20.11
2022-08-17T04:56:02.027Z,19.57
2022-08-17T05:01:05.999Z,20.17
2022-08-17T05:06:09.021Z,19.94
2022-08-17T05:11:11.289Z,19.53
2022-08-17T05:16:13.595Z,19.33
2022-08-17T05:21:16.761Z,19.23
2022-08-17T05:26:26.761Z,19.11
2022-08-17T05:31:30.552Z,19.50
2022-08-17T05:36:43.461Z,19.80
2022-08-17T05:41:48.178Z,19.23
2022-08-17T05:46:53.345Z,16.38
2022-08-17T05:52:07.070Z,16.48
2022-08-17T05:57:18.061Z,16.87
2022-08-17T06:02:48.205Z,18.26
2022-08-17T06:07:59.661Z,15.88
2022-08-17T06:13:11.082Z,14.78
2022-08-17T06:18:18.912Z,15.36
2022-08-17T06:23:43.430Z,13.23
2022-08-17T06:28:59.225Z,15.92
2022-08-17T06:34:06.388Z,16.65
2022-08-17T06:39:24.429Z,17.32
2022-08-17T06:44:43.304Z,19.24
2022-08-17T06:50:03.399Z,18.89
2022-08-17T06:55:18.145Z,14.83
2022-08-17T07:00:26.714Z,15.50
2022-08-17T07:05:38.837Z,18.16
2022-08-17T07:10:51.262Z,19.48
2022-08-17T07:15:59.699Z,20.43
2022-08-17T07:21:29.480Z,20.35
2022-08-17T07:26:34.640Z,21.29
2022-08-17T07:31:39.081Z,20.67
2022-08-17T07:36:42.993Z,18.41
2022-08-17T07:41:57.061Z,14.91
2022-08-17T07:47:19.551Z,17.71
2022-08-17T07:52:51.185Z,17.25
2022-08-17T07:57:59.062Z,18.14
2022-08-17T08:03:11.620Z,19.66
2022-08-17T08:08:43.615Z,17.94
2022-08-17T08:13:46.144Z,14.58
2022-08-17T08:18:55.382Z,14.79
2022-08-17T08:24:20.233Z,16.86
2022-08-17T08:29:49.251Z,18.96
2022-08-17T08:35:13.950Z,15.13
2022-08-17T08:40:34.337Z,16.27
2022-08-17T08:46:05.960Z,15.38
2022-08-17T08:51:19.322Z,15.77
2022-08-17T08:56:21.994Z,18.23
2022-08-17T09:01:51.247Z,20.39
2022-08-17T09:07:17.789Z,19.11
2022-08-17T09:12:50.011Z,19.85
2022-08-17T09:18:59.820Z,18.51
2022-08-17T09:23:35.193Z,17.50
2022-08-17T09:28:40.425Z,20.41
2022-08-17T09:33:48.435Z,17.96
2022-08-17T09:39:04.185Z,20.89
2022-08-17T09:44:36.661Z,22.20
2022-08-17T09:49:47.343Z,20.90
2022-08-17T09:54:51.814Z,22.27
2022-08-17T10:00:19.047Z,17.00
2022-08-17T10:05:30.324Z,19.14
2022-08-17T10:10:56.352Z,22.16
2022-08-17T10:16:07.901Z,23.06
2022-08-17T10:21:35.304Z,20.23
2022-08-17T10:26:55.484Z,19.60
2022-08-17T10:32:07.190Z,20.06
2022-08-17T10:37:28.438Z,19.17
2022-08-17T10:42:42.776Z,18.79
2022-08-17T10:48:04.760Z,19.18
2022-08-17T10:53:08.077Z,19.67
2022-08-17T10:58:24.528Z,19.10
2022-08-17T11:03:29.790Z,21.21
2022-08-17T11:08:55.129Z,20.50
2022-08-17T11:14:36.789Z,21.66
2022-08-17T11:20:12.593Z,20.54
2022-08-17T11:25:32.396Z,19.07
2022-08-17T11:30:40.668Z,20.24
2022-08-17T11:35:54.510Z,20.41
2022-08-17T11:41:35.142Z,20.42
2022-08-17T11:47:09.539Z,19.63
2022-08-17T11:52:36.729Z,21.68
2022-08-17T11:57:40.449Z,21.74
2022-08-17T12:02:48.159Z,20.34
2022-08-17T12:08:12.829Z,21.54
2022-08-17T12:13:16.810Z,20.65
2022-08-17T12:18:32.096Z,20.33
2022-08-17T12:23:47.494Z,19.86
2022-08-17T12:28:57.538Z,21.25
2022-08-17T12:34:04.605Z,21.52
2022-08-17T12:39:13.848Z,22.67
2022-08-17T12:44:46.122Z,21.46
2022-08-17T12:49:54.888Z,23.13
2022-08-17T12:55:18.709Z,22.34
2022-08-17T13:00:31.723Z,21.01
2022-08-17T13:05:38.061Z,20.88
2022-08-17T13:10:40.616Z,21.23
2022-08-17T13:15:53.582Z,23.10
2022-08-17T13:20:59.289Z,20.44
2022-08-17T13:26:07.137Z,22.93
2022-08-17T13:31:30.491Z,23.02
2022-08-17T13:36:33.757Z,22.41
2022-08-17T13:41:38.015Z,24.36
2022-08-17T13:46:40.215Z,22.55
2022-08-17T13:51:44.912Z,22.59
2022-08-17T13:56:55.851Z,21.10
2022-08-17T14:01:58.769Z,21.21
2022-08-17T14:07:11.615Z,20.79
2022-08-17T14:12:17.420Z,21.71
2022-08-17T14:17:19.969Z,20.27
2022-08-17T14:22:27.967Z,22.06
2022-08-17T14:27:51.895Z,21.36
2022-08-17T14:32:56.617Z,20.58
2022-08-17T14:37:58.822Z,20.52
2022-08-17T14:43:01.475Z,21.17
2022-08-17T14:48:08.641Z,21.47
2022-08-17T14:53:15.129Z,21.98
2022-08-17T14:58:18.113Z,23.23
2022-08-17T15:03:20.943Z,23.44
2022-08-17T15:08:23.150Z,23.70
2022-08-17T15:13:26.909Z,23.39
2022-08-17T15:18:30.367Z,21.69
2022-08-17T15:23:32.982Z,20.49
2022-08-17T15:28:35.524Z,14.09
2022-08-17T15:33:37.745Z,18.90
2022-08-17T15:38:41.038Z,18.53
2022-08-17T15:43:50.028Z,19.25
2022-08-17T15:48:55.688Z,18.72
2022-08-17T15:54:19.067Z,13.41
2022-08-17T15:59:24.790Z,15.28
2022-08-17T16:04:30.802Z,15.49
2022-08-17T16:09:33.862Z,15.34
2022-08-17T16:14:36.485Z,14.59
2022-08-17T16:19:39.706Z,11.70
2022-08-17T16:24:57.247Z,11.17
2022-08-17T16:30:00.640Z,10.93
2022-08-17T16:35:08.200Z,11.66
2022-08-17T16:40:11.714Z,12.35
2022-08-17T16:45:23.520Z,9.95
2022-08-17T16:50:26.804Z,11.73
2022-08-17T16:55:28.894Z,12.48
2022-08-17T17:00:33.432Z,9.66
2022-08-17T17:05:55.135Z,10.30
2022-08-17T17:11:08.952Z,12.78
2022-08-17T17:16:28.540Z,11.29
2022-08-17T17:21:42.507Z,10.07
2022-08-17T17:26:50.827Z,11.23
2022-08-17T17:32:20.989Z,13.56
2022-08-17T17:37:32.692Z,11.48
2022-08-17T17:42:39.225Z,12.33
2022-08-17T17:47:41.958Z,12.97
2022-08-17T17:52:54.010Z,12.80
2022-08-17T17:58:48.525Z,13.59
2022-08-17T18:04:14.279Z,14.28
2022-08-17T18:10:05.769Z,15.77
2022-08-17T18:15:34.895Z,15.28
2022-08-17T18:20:53.453Z,16.52
2022-08-17T18:25:58.860Z,15.27
2022-08-17T18:31:13.260Z,16.74
2022-08-17T18:36:34.342Z,15.97
2022-08-17T18:41:46.155Z,16.77
2022-08-17T18:46:48.336Z,17.34
2022-08-17T18:52:17.408Z,18.26
2022-08-17T18:57:34.713Z,18.19
2022-08-17T19:02:56.431Z,17.81
2022-08-17T19:08:29.650Z,16.59
2022-08-17T19:13:37.145Z,17.83
2022-08-17T19:18:52.042Z,18.14
2022-08-17T19:24:05.134Z,18.31
2022-08-17T19:29:22.565Z,18.16
2022-08-17T19:34:34.016Z,18.47
2022-08-17T19:39:42.421Z,18.71
2022-08-17T19:44:52.828Z,18.94
2022-08-17T19:50:16.546Z,19.10
2022-08-17T19:55:31.850Z,18.84
2022-08-17T20:00:41.970Z,19.22
2022-08-17T20:06:11.432Z,19.25
2022-08-17T20:11:21.239Z,18.76
2022-08-17T20:16:24.761Z,19.22
2022-08-17T20:21:34.574Z,18.11
2022-08-17T20:26:58.604Z,17.19
2022-08-17T20:32:01.126Z,17.56
2022-08-17T20:37:10.298Z,17.52
2022-08-17T20:42:21.302Z,18.26
2022-08-17T20:47:32.801Z,17.38
2022-08-17T20:52:43.544Z,16.88
2022-08-17T20:57:49.076Z,16.34
2022-08-17T21:03:12.150Z,13.67
2022-08-17T21:08:17.066Z,15.79
2022-08-17T21:13:22.102Z,15.77
2022-08-17T21:18:47.653Z,17.30
2022-08-17T21:23:55.680Z,17.59
2022-08-17T21:29:31.020Z,17.97
2022-08-17T21:34:45.353Z,18.17
2022-08-17T21:40:00.606Z,18.20
2022-08-17T21:45:26.136Z,16.14
2022-08-17T21:50:28.377Z,16.51
2022-08-17T21:55:36.169Z,17.00
2022-08-17T22:00:38.541Z,16.83
2022-08-17T22:05:40.743Z,16.87
2022-08-17T22:10:45.084Z,17.39
2022-08-17T22:16:15.317Z,17.01
2022-08-17T22:21:30.439Z,17.34
2022-08-17T22:26:59.519Z,17.82
2022-08-17T22:32:01.701Z,16.22
2022-08-17T22:37:29.116Z,15.68
2022-08-17T22:42:48.643Z,13.55
2022-08-17T22:47:55.709Z,11.11
2022-08-17T22:53:20.437Z,9.71
2022-08-17T22:58:43.513Z,8.41
2022-08-17T23:04:12.165Z,11.06
2022-08-17T23:09:14.343Z,12.65
2022-08-17T23:14:19.306Z,13.81
2022-08-17T23:19:21.819Z,14.02
2022-08-17T23:24:30.027Z,12.96
2022-08-17T23:29:32.229Z,12.72
2022-08-17T23:34:34.771Z,12.08
2022-08-17T23:39:37.753Z,11.84
2022-08-17T23:44:41.782Z,10.61
2022-08-17T23:49:44.055Z,10.22
2022-08-17T23:54:48.378Z,11.96
2022-08-17T23:59:50.537Z,12.47
